Skip Navigation LinksHome page > Weather > Current weather Skip Navigation Links

Current Weather

Montgomery County Airpark, Gaithersburg, Md.

For information only: do not use for flight planning or navigation.
Latest weather
Observation time Tuesday, January 19, 2021 3:56 AM EST
Local time Tuesday, January 19, 2021 4:22 AM EST
Flight conditions Visual Meteorological Conditions
Winds
Wind direction West (260°)
Wind speed 9 mph
Visibility 10 mi.
Sky condition
Ceiling 6,000 ft. overcast
Cloud layer few clouds 4,600 ft.
Cloud layer overcast 6,000 ft.
Temperature 33°F
Dewpoint 23°F
Altimeter 30.11 in.Hg
Pressure change last 3 hours-0.04 in.Hg
Pressure rising more quickly
Derived measurements
Relative humidity 66%
Wind chill 25°F
Density altitude -1370 ft.
Sea-level pressure 30.16 in.Hg
Remarks
Fully automated report.
Automated weather observing station with precipitation discriminator.
Freezing rain sensor not operating.
METAR KGAI 190856Z AUTO 26008KT 10SM FEW046 OVC060 01/M05 A3011 RMK AO2 SLP215 T00061050 53014 FZRANO

Settings

Location code

InnerDrive.Weather 4.0.6770.0 Release CLR 4.0.30319.42000
Copyright ©2018 Inner Drive Technology. All rights reserved. Portions Copyright ©1986-2018 David Braverman.

Find weather

Site navigation


Skip Navigation Links

Place info

Page info

PayPal - The safer, easier way to pay online!

Return home.

Copyright ©2021 Inner Drive Technology. Purveyors of fine, hand-crafted computer software. Page printed 2021-01-19T09:22:37 UTC.